sensor_id;sensor_type;location;lat;lon;timestamp;P1;durP1;ratioP1;P2;durP2;ratioP2
53873;SDS011;62246;50.938;4.058;2022-09-12T00:00:48;13.30;;;7.38;;
53873;SDS011;62246;50.938;4.058;2022-09-12T00:03:14;11.43;;;7.20;;
53873;SDS011;62246;50.938;4.058;2022-09-12T00:05:41;11.48;;;7.47;;
53873;SDS011;62246;50.938;4.058;2022-09-12T00:08:11;13.80;;;7.72;;
53873;SDS011;62246;50.938;4.058;2022-09-12T00:10:40;11.48;;;8.00;;
53873;SDS011;62246;50.938;4.058;2022-09-12T00:13:07;12.32;;;7.90;;
53873;SDS011;62246;50.938;4.058;2022-09-12T00:15:39;11.05;;;6.85;;
53873;SDS011;62246;50.938;4.058;2022-09-12T00:18:07;12.57;;;8.20;;
53873;SDS011;62246;50.938;4.058;2022-09-12T00:20:34;11.73;;;7.50;;
53873;SDS011;62246;50.938;4.058;2022-09-12T00:22:59;12.60;;;7.50;;
53873;SDS011;62246;50.938;4.058;2022-09-12T00:25:25;11.52;;;7.57;;
53873;SDS011;62246;50.938;4.058;2022-09-12T00:27:50;14.73;;;8.07;;
53873;SDS011;62246;50.938;4.058;2022-09-12T00:30:16;10.85;;;7.32;;
53873;SDS011;62246;50.938;4.058;2022-09-12T00:32:41;12.05;;;7.82;;
53873;SDS011;62246;50.938;4.058;2022-09-12T00:35:07;13.45;;;7.97;;
53873;SDS011;62246;50.938;4.058;2022-09-12T00:37:33;10.82;;;7.22;;
53873;SDS011;62246;50.938;4.058;2022-09-12T00:39:59;14.68;;;7.50;;
53873;SDS011;62246;50.938;4.058;2022-09-12T00:42:24;12.43;;;7.43;;
53873;SDS011;62246;50.938;4.058;2022-09-12T00:44:50;11.63;;;7.22;;
53873;SDS011;62246;50.938;4.058;2022-09-12T00:47:25;12.40;;;7.60;;
53873;SDS011;62246;50.938;4.058;2022-09-12T00:49:54;11.05;;;7.45;;
53873;SDS011;62246;50.938;4.058;2022-09-12T00:55:09;13.87;;;7.87;;
53873;SDS011;62246;50.938;4.058;2022-09-12T01:00:35;11.48;;;7.80;;
53873;SDS011;62246;50.938;4.058;2022-09-12T01:03:03;13.80;;;8.48;;
53873;SDS011;62246;50.938;4.058;2022-09-12T01:05:33;11.00;;;7.43;;
53873;SDS011;62246;50.938;4.058;2022-09-12T01:08:04;13.07;;;7.45;;
53873;SDS011;62246;50.938;4.058;2022-09-12T01:10:30;12.77;;;8.50;;
53873;SDS011;62246;50.938;4.058;2022-09-12T01:12:58;13.15;;;7.90;;
53873;SDS011;62246;50.938;4.058;2022-09-12T01:15:24;11.40;;;7.63;;
53873;SDS011;62246;50.938;4.058;2022-09-12T01:26:14;12.80;;;7.93;;
53873;SDS011;62246;50.938;4.058;2022-09-12T01:31:48;12.70;;;7.75;;
53873;SDS011;62246;50.938;4.058;2022-09-12T01:39:54;14.43;;;8.23;;
53873;SDS011;62246;50.938;4.058;2022-09-12T01:42:45;12.38;;;8.10;;
53873;SDS011;62246;50.938;4.058;2022-09-12T01:45:22;12.48;;;8.00;;
53873;SDS011;62246;50.938;4.058;2022-09-12T01:47:57;13.30;;;8.30;;
53873;SDS011;62246;50.938;4.058;2022-09-12T01:50:30;12.05;;;7.70;;
53873;SDS011;62246;50.938;4.058;2022-09-12T01:53:04;15.50;;;9.27;;
53873;SDS011;62246;50.938;4.058;2022-09-12T01:55:39;13.50;;;8.00;;
53873;SDS011;62246;50.938;4.058;2022-09-12T02:00:48;11.32;;;7.47;;
53873;SDS011;62246;50.938;4.058;2022-09-12T02:03:21;12.57;;;8.02;;
53873;SDS011;62246;50.938;4.058;2022-09-12T02:06:03;13.40;;;8.90;;
53873;SDS011;62246;50.938;4.058;2022-09-12T02:08:36;15.32;;;9.40;;
53873;SDS011;62246;50.938;4.058;2022-09-12T02:11:07;12.27;;;8.07;;
53873;SDS011;62246;50.938;4.058;2022-09-12T02:13:39;12.82;;;7.18;;
53873;SDS011;62246;50.938;4.058;2022-09-12T02:16:15;12.20;;;7.30;;
53873;SDS011;62246;50.938;4.058;2022-09-12T02:18:46;13.40;;;7.63;;
53873;SDS011;62246;50.938;4.058;2022-09-12T02:21:18;12.57;;;7.63;;
53873;SDS011;62246;50.938;4.058;2022-09-12T02:23:47;14.32;;;7.85;;
53873;SDS011;62246;50.938;4.058;2022-09-12T02:26:19;11.25;;;7.35;;
53873;SDS011;62246;50.938;4.058;2022-09-12T02:28:47;14.35;;;8.82;;
53873;SDS011;62246;50.938;4.058;2022-09-12T02:31:16;15.85;;;8.18;;
53873;SDS011;62246;50.938;4.058;2022-09-12T02:34:00;15.00;;;8.55;;
53873;SDS011;62246;50.938;4.058;2022-09-12T02:39:25;13.68;;;8.35;;
53873;SDS011;62246;50.938;4.058;2022-09-12T02:41:51;12.65;;;8.63;;
53873;SDS011;62246;50.938;4.058;2022-09-12T02:44:18;13.73;;;9.13;;
53873;SDS011;62246;50.938;4.058;2022-09-12T02:46:49;12.25;;;7.85;;
53873;SDS011;62246;50.938;4.058;2022-09-12T02:49:18;12.63;;;7.60;;
53873;SDS011;62246;50.938;4.058;2022-09-12T02:51:44;15.02;;;7.93;;
53873;SDS011;62246;50.938;4.058;2022-09-12T02:54:10;13.00;;;7.80;;
53873;SDS011;62246;50.938;4.058;2022-09-12T02:56:40;13.00;;;8.40;;
53873;SDS011;62246;50.938;4.058;2022-09-12T02:59:08;13.63;;;8.32;;
53873;SDS011;62246;50.938;4.058;2022-09-12T03:01:55;12.95;;;8.38;;
53873;SDS011;62246;50.938;4.058;2022-09-12T03:14:59;14.85;;;9.60;;
53873;SDS011;62246;50.938;4.058;2022-09-12T03:22:41;15.32;;;8.68;;
53873;SDS011;62246;50.938;4.058;2022-09-12T03:28:01;12.98;;;8.13;;
53873;SDS011;62246;50.938;4.058;2022-09-12T03:30:42;16.65;;;9.88;;
53873;SDS011;62246;50.938;4.058;2022-09-12T03:33:13;17.23;;;10.23;;
53873;SDS011;62246;50.938;4.058;2022-09-12T03:35:40;12.43;;;8.00;;
53873;SDS011;62246;50.938;4.058;2022-09-12T03:38:06;14.18;;;7.75;;
53873;SDS011;62246;50.938;4.058;2022-09-12T03:40:35;13.57;;;8.57;;
53873;SDS011;62246;50.938;4.058;2022-09-12T03:43:01;13.95;;;8.82;;
53873;SDS011;62246;50.938;4.058;2022-09-12T03:45:27;13.82;;;8.80;;
53873;SDS011;62246;50.938;4.058;2022-09-12T03:47:53;15.70;;;8.55;;
53873;SDS011;62246;50.938;4.058;2022-09-12T03:50:18;15.20;;;7.65;;
53873;SDS011;62246;50.938;4.058;2022-09-12T03:52:44;12.48;;;7.53;;
53873;SDS011;62246;50.938;4.058;2022-09-12T03:55:09;14.02;;;8.90;;
53873;SDS011;62246;50.938;4.058;2022-09-12T03:57:35;14.60;;;9.18;;
53873;SDS011;62246;50.938;4.058;2022-09-12T04:00:00;12.90;;;8.15;;
53873;SDS011;62246;50.938;4.058;2022-09-12T04:02:28;17.73;;;9.45;;
53873;SDS011;62246;50.938;4.058;2022-09-12T04:04:54;16.63;;;8.93;;
53873;SDS011;62246;50.938;4.058;2022-09-12T04:07:19;15.38;;;9.68;;
53873;SDS011;62246;50.938;4.058;2022-09-12T04:09:45;14.85;;;9.13;;
53873;SDS011;62246;50.938;4.058;2022-09-12T04:12:10;18.63;;;10.38;;
53873;SDS011;62246;50.938;4.058;2022-09-12T04:14:37;17.60;;;9.40;;
53873;SDS011;62246;50.938;4.058;2022-09-12T04:17:03;17.23;;;9.90;;
53873;SDS011;62246;50.938;4.058;2022-09-12T04:19:28;16.13;;;10.70;;
53873;SDS011;62246;50.938;4.058;2022-09-12T04:21:54;18.00;;;10.90;;
53873;SDS011;62246;50.938;4.058;2022-09-12T04:24:19;16.63;;;9.82;;
53873;SDS011;62246;50.938;4.058;2022-09-12T04:26:45;14.80;;;8.77;;
53873;SDS011;62246;50.938;4.058;2022-09-12T04:29:10;13.80;;;9.20;;
53873;SDS011;62246;50.938;4.058;2022-09-12T04:31:36;17.23;;;9.75;;
53873;SDS011;62246;50.938;4.058;2022-09-12T04:34:02;15.82;;;9.43;;
53873;SDS011;62246;50.938;4.058;2022-09-12T04:36:29;18.80;;;10.82;;
53873;SDS011;62246;50.938;4.058;2022-09-12T04:38:55;16.67;;;9.80;;
53873;SDS011;62246;50.938;4.058;2022-09-12T04:41:22;16.40;;;9.52;;
53873;SDS011;62246;50.938;4.058;2022-09-12T04:43:56;16.95;;;9.85;;
53873;SDS011;62246;50.938;4.058;2022-09-12T04:46:25;14.75;;;9.35;;
53873;SDS011;62246;50.938;4.058;2022-09-12T04:48:51;18.02;;;10.48;;
53873;SDS011;62246;50.938;4.058;2022-09-12T04:51:18;15.93;;;9.98;;
53873;SDS011;62246;50.938;4.058;2022-09-12T04:53:47;16.88;;;9.40;;
53873;SDS011;62246;50.938;4.058;2022-09-12T04:56:13;15.40;;;9.27;;
53873;SDS011;62246;50.938;4.058;2022-09-12T04:58:39;17.73;;;10.43;;
53873;SDS011;62246;50.938;4.058;2022-09-12T05:03:34;17.10;;;9.60;;
53873;SDS011;62246;50.938;4.058;2022-09-12T05:06:03;17.58;;;9.60;;
53873;SDS011;62246;50.938;4.058;2022-09-12T05:08:30;17.88;;;9.77;;
53873;SDS011;62246;50.938;4.058;2022-09-12T05:10:55;15.85;;;9.95;;
53873;SDS011;62246;50.938;4.058;2022-09-12T05:13:21;18.77;;;10.23;;
53873;SDS011;62246;50.938;4.058;2022-09-12T05:15:53;17.00;;;10.32;;
53873;SDS011;62246;50.938;4.058;2022-09-12T05:18:19;17.27;;;10.32;;
53873;SDS011;62246;50.938;4.058;2022-09-12T05:20:45;20.45;;;10.93;;
53873;SDS011;62246;50.938;4.058;2022-09-12T05:23:11;16.02;;;9.77;;
53873;SDS011;62246;50.938;4.058;2022-09-12T05:25:36;17.60;;;10.68;;
53873;SDS011;62246;50.938;4.058;2022-09-12T05:28:02;17.58;;;10.77;;
53873;SDS011;62246;50.938;4.058;2022-09-12T05:30:27;19.75;;;11.80;;
53873;SDS011;62246;50.938;4.058;2022-09-12T05:32:52;22.95;;;12.50;;
53873;SDS011;62246;50.938;4.058;2022-09-12T05:35:18;16.98;;;10.07;;
53873;SDS011;62246;50.938;4.058;2022-09-12T05:37:43;18.92;;;10.85;;
53873;SDS011;62246;50.938;4.058;2022-09-12T05:40:08;17.42;;;10.13;;
53873;SDS011;62246;50.938;4.058;2022-09-12T05:42:34;20.35;;;10.82;;
53873;SDS011;62246;50.938;4.058;2022-09-12T05:45:00;19.58;;;11.38;;
53873;SDS011;62246;50.938;4.058;2022-09-12T05:47:26;20.35;;;11.43;;
53873;SDS011;62246;50.938;4.058;2022-09-12T05:49:51;20.05;;;11.30;;
53873;SDS011;62246;50.938;4.058;2022-09-12T05:52:17;19.77;;;11.13;;
53873;SDS011;62246;50.938;4.058;2022-09-12T05:54:44;19.60;;;11.38;;
53873;SDS011;62246;50.938;4.058;2022-09-12T05:57:11;18.70;;;10.45;;
53873;SDS011;62246;50.938;4.058;2022-09-12T05:59:36;18.35;;;10.48;;
53873;SDS011;62246;50.938;4.058;2022-09-12T06:02:02;20.75;;;10.60;;
53873;SDS011;62246;50.938;4.058;2022-09-12T06:04:28;18.10;;;10.88;;
53873;SDS011;62246;50.938;4.058;2022-09-12T06:06:53;15.85;;;10.25;;
53873;SDS011;62246;50.938;4.058;2022-09-12T06:09:19;17.38;;;9.82;;
53873;SDS011;62246;50.938;4.058;2022-09-12T06:11:45;15.70;;;10.05;;
53873;SDS011;62246;50.938;4.058;2022-09-12T06:14:11;19.92;;;10.80;;
53873;SDS011;62246;50.938;4.058;2022-09-12T06:16:38;17.40;;;10.38;;
53873;SDS011;62246;50.938;4.058;2022-09-12T06:19:05;15.38;;;9.77;;
53873;SDS011;62246;50.938;4.058;2022-09-12T06:21:32;17.85;;;9.00;;
53873;SDS011;62246;50.938;4.058;2022-09-12T06:23:59;16.52;;;9.73;;
53873;SDS011;62246;50.938;4.058;2022-09-12T06:26:25;16.42;;;9.35;;
53873;SDS011;62246;50.938;4.058;2022-09-12T06:28:52;17.48;;;9.70;;
53873;SDS011;62246;50.938;4.058;2022-09-12T06:31:20;16.92;;;9.93;;
53873;SDS011;62246;50.938;4.058;2022-09-12T06:33:49;15.88;;;9.32;;
53873;SDS011;62246;50.938;4.058;2022-09-12T06:36:23;17.42;;;9.45;;
53873;SDS011;62246;50.938;4.058;2022-09-12T06:38:52;16.75;;;9.40;;
53873;SDS011;62246;50.938;4.058;2022-09-12T06:41:20;18.48;;;10.80;;
53873;SDS011;62246;50.938;4.058;2022-09-12T06:43:45;18.23;;;10.35;;
53873;SDS011;62246;50.938;4.058;2022-09-12T06:46:11;17.23;;;9.73;;
53873;SDS011;62246;50.938;4.058;2022-09-12T06:48:37;16.52;;;9.93;;
53873;SDS011;62246;50.938;4.058;2022-09-12T06:51:03;18.20;;;9.55;;
53873;SDS011;62246;50.938;4.058;2022-09-12T06:53:33;21.63;;;12.45;;
53873;SDS011;62246;50.938;4.058;2022-09-12T06:56:19;17.88;;;11.68;;
53873;SDS011;62246;50.938;4.058;2022-09-12T06:58:47;21.95;;;12.10;;
53873;SDS011;62246;50.938;4.058;2022-09-12T07:01:14;22.15;;;12.55;;
53873;SDS011;62246;50.938;4.058;2022-09-12T07:03:42;22.52;;;12.95;;
53873;SDS011;62246;50.938;4.058;2022-09-12T07:06:13;21.77;;;12.23;;
53873;SDS011;62246;50.938;4.058;2022-09-12T07:08:40;19.88;;;11.68;;
53873;SDS011;62246;50.938;4.058;2022-09-12T07:11:10;16.15;;;9.38;;
53873;SDS011;62246;50.938;4.058;2022-09-12T07:13:48;18.27;;;10.70;;
53873;SDS011;62246;50.938;4.058;2022-09-12T07:16:15;17.83;;;11.07;;
53873;SDS011;62246;50.938;4.058;2022-09-12T07:18:41;20.98;;;10.52;;
53873;SDS011;62246;50.938;4.058;2022-09-12T07:21:09;19.85;;;11.13;;
53873;SDS011;62246;50.938;4.058;2022-09-12T07:23:36;20.45;;;10.18;;
53873;SDS011;62246;50.938;4.058;2022-09-12T07:26:02;18.95;;;11.02;;
53873;SDS011;62246;50.938;4.058;2022-09-12T07:28:29;18.83;;;11.07;;
53873;SDS011;62246;50.938;4.058;2022-09-12T07:30:56;20.80;;;10.88;;
53873;SDS011;62246;50.938;4.058;2022-09-12T07:33:24;18.67;;;10.73;;
53873;SDS011;62246;50.938;4.058;2022-09-12T07:35:51;19.02;;;10.27;;
53873;SDS011;62246;50.938;4.058;2022-09-12T07:38:18;16.38;;;10.25;;
53873;SDS011;62246;50.938;4.058;2022-09-12T07:40:44;19.25;;;9.90;;
53873;SDS011;62246;50.938;4.058;2022-09-12T07:43:10;18.65;;;8.93;;
53873;SDS011;62246;50.938;4.058;2022-09-12T07:45:36;16.13;;;8.75;;
53873;SDS011;62246;50.938;4.058;2022-09-12T07:48:02;14.90;;;8.43;;
53873;SDS011;62246;50.938;4.058;2022-09-12T07:50:28;17.20;;;9.32;;
53873;SDS011;62246;50.938;4.058;2022-09-12T07:52:53;16.33;;;9.30;;
53873;SDS011;62246;50.938;4.058;2022-09-12T07:55:19;14.60;;;8.63;;
53873;SDS011;62246;50.938;4.058;2022-09-12T07:57:48;17.65;;;9.25;;
53873;SDS011;62246;50.938;4.058;2022-09-12T08:00:14;15.20;;;9.30;;
53873;SDS011;62246;50.938;4.058;2022-09-12T08:02:40;14.05;;;8.50;;
53873;SDS011;62246;50.938;4.058;2022-09-12T08:11:49;14.83;;;9.27;;
53873;SDS011;62246;50.938;4.058;2022-09-12T08:14:15;15.13;;;9.32;;
53873;SDS011;62246;50.938;4.058;2022-09-12T08:16:41;16.23;;;8.43;;
53873;SDS011;62246;50.938;4.058;2022-09-12T08:19:07;15.10;;;7.90;;
53873;SDS011;62246;50.938;4.058;2022-09-12T08:21:32;14.82;;;7.57;;
53873;SDS011;62246;50.938;4.058;2022-09-12T08:24:02;16.00;;;7.88;;
53873;SDS011;62246;50.938;4.058;2022-09-12T08:26:30;12.65;;;7.40;;
53873;SDS011;62246;50.938;4.058;2022-09-12T08:28:56;13.50;;;8.13;;
53873;SDS011;62246;50.938;4.058;2022-09-12T08:31:24;15.93;;;7.97;;
53873;SDS011;62246;50.938;4.058;2022-09-12T08:33:51;14.52;;;8.43;;
53873;SDS011;62246;50.938;4.058;2022-09-12T08:36:20;17.88;;;7.50;;
53873;SDS011;62246;50.938;4.058;2022-09-12T08:38:47;12.20;;;6.70;;
53873;SDS011;62246;50.938;4.058;2022-09-12T08:48:55;14.15;;;7.40;;
53873;SDS011;62246;50.938;4.058;2022-09-12T08:51:23;12.23;;;7.00;;
53873;SDS011;62246;50.938;4.058;2022-09-12T08:53:50;13.95;;;7.20;;
53873;SDS011;62246;50.938;4.058;2022-09-12T08:56:18;12.18;;;5.82;;
53873;SDS011;62246;50.938;4.058;2022-09-12T08:58:44;10.48;;;5.68;;
53873;SDS011;62246;50.938;4.058;2022-09-12T09:17:52;11.30;;;6.05;;
53873;SDS011;62246;50.938;4.058;2022-09-12T09:28:44;8.23;;;4.80;;
53873;SDS011;62246;50.938;4.058;2022-09-12T09:31:14;7.95;;;4.60;;
53873;SDS011;62246;50.938;4.058;2022-09-12T09:33:41;8.43;;;4.55;;
53873;SDS011;62246;50.938;4.058;2022-09-12T09:36:21;12.70;;;4.45;;
53873;SDS011;62246;50.938;4.058;2022-09-12T09:39:03;14.43;;;5.15;;
53873;SDS011;62246;50.938;4.058;2022-09-12T09:44:24;9.23;;;4.35;;
53873;SDS011;62246;50.938;4.058;2022-09-12T09:46:54;7.05;;;3.80;;
53873;SDS011;62246;50.938;4.058;2022-09-12T09:49:22;9.05;;;3.97;;
53873;SDS011;62246;50.938;4.058;2022-09-12T09:51:50;9.10;;;4.25;;
53873;SDS011;62246;50.938;4.058;2022-09-12T09:56:47;6.37;;;3.43;;
53873;SDS011;62246;50.938;4.058;2022-09-12T10:04:34;4.82;;;2.90;;
53873;SDS011;62246;50.938;4.058;2022-09-12T10:07:03;5.68;;;3.33;;
53873;SDS011;62246;50.938;4.058;2022-09-12T10:09:33;6.35;;;2.88;;
53873;SDS011;62246;50.938;4.058;2022-09-12T10:12:19;7.45;;;3.50;;
53873;SDS011;62246;50.938;4.058;2022-09-12T10:14:57;7.05;;;3.33;;
53873;SDS011;62246;50.938;4.058;2022-09-12T10:17:31;7.65;;;3.38;;
53873;SDS011;62246;50.938;4.058;2022-09-12T10:20:51;5.00;;;2.80;;
53873;SDS011;62246;50.938;4.058;2022-09-12T10:22:55;6.10;;;3.10;;
53873;SDS011;62246;50.938;4.058;2022-09-12T10:25:22;3.75;;;2.55;;
53873;SDS011;62246;50.938;4.058;2022-09-12T10:27:53;4.50;;;2.58;;
53873;SDS011;62246;50.938;4.058;2022-09-12T10:30:21;4.78;;;2.35;;
53873;SDS011;62246;50.938;4.058;2022-09-12T10:32:52;5.05;;;2.28;;
53873;SDS011;62246;50.938;4.058;2022-09-12T10:35:21;3.58;;;2.00;;
53873;SDS011;62246;50.938;4.058;2022-09-12T10:40:40;5.43;;;2.40;;
53873;SDS011;62246;50.938;4.058;2022-09-12T10:43:52;3.63;;;2.22;;
53873;SDS011;62246;50.938;4.058;2022-09-12T10:46:19;2.55;;;2.03;;
53873;SDS011;62246;50.938;4.058;2022-09-12T10:49:11;5.53;;;2.28;;
53873;SDS011;62246;50.938;4.058;2022-09-12T10:51:38;6.68;;;2.50;;
53873;SDS011;62246;50.938;4.058;2022-09-12T10:54:04;4.90;;;1.92;;
53873;SDS011;62246;50.938;4.058;2022-09-12T10:56:38;4.80;;;2.50;;
53873;SDS011;62246;50.938;4.058;2022-09-12T11:02:10;3.58;;;2.35;;
53873;SDS011;62246;50.938;4.058;2022-09-12T11:05:12;5.25;;;2.15;;
53873;SDS011;62246;50.938;4.058;2022-09-12T11:10:17;2.80;;;1.80;;
53873;SDS011;62246;50.938;4.058;2022-09-12T11:20:56;2.25;;;1.83;;
53873;SDS011;62246;50.938;4.058;2022-09-12T11:31:34;3.67;;;1.65;;
53873;SDS011;62246;50.938;4.058;2022-09-12T11:34:06;3.40;;;2.08;;
53873;SDS011;62246;50.938;4.058;2022-09-12T11:39:33;3.70;;;1.73;;
53873;SDS011;62246;50.938;4.058;2022-09-12T11:42:06;4.40;;;2.00;;
53873;SDS011;62246;50.938;4.058;2022-09-12T11:44:40;2.78;;;1.65;;
53873;SDS011;62246;50.938;4.058;2022-09-12T11:47:10;3.47;;;1.95;;
53873;SDS011;62246;50.938;4.058;2022-09-12T11:54:42;5.28;;;2.15;;
53873;SDS011;62246;50.938;4.058;2022-09-12T12:02:14;3.38;;;2.10;;
53873;SDS011;62246;50.938;4.058;2022-09-12T12:04:52;4.63;;;2.00;;
53873;SDS011;62246;50.938;4.058;2022-09-12T12:07:26;6.65;;;2.10;;
53873;SDS011;62246;50.938;4.058;2022-09-12T12:10:01;2.50;;;1.77;;
53873;SDS011;62246;50.938;4.058;2022-09-12T12:12:27;3.85;;;2.20;;
53873;SDS011;62246;50.938;4.058;2022-09-12T12:14:53;3.85;;;1.90;;
53873;SDS011;62246;50.938;4.058;2022-09-12T12:17:21;4.97;;;1.90;;
53873;SDS011;62246;50.938;4.058;2022-09-12T12:20:01;2.75;;;1.90;;
53873;SDS011;62246;50.938;4.058;2022-09-12T12:22:28;5.30;;;1.90;;
53873;SDS011;62246;50.938;4.058;2022-09-12T12:27:48;3.55;;;2.10;;
53873;SDS011;62246;50.938;4.058;2022-09-12T12:37:59;2.80;;;2.20;;
53873;SDS011;62246;50.938;4.058;2022-09-12T12:40:25;2.72;;;1.90;;
53873;SDS011;62246;50.938;4.058;2022-09-12T12:50:25;3.60;;;2.00;;
53873;SDS011;62246;50.938;4.058;2022-09-12T12:52:53;3.85;;;2.22;;
53873;SDS011;62246;50.938;4.058;2022-09-12T12:55:23;4.95;;;2.20;;
53873;SDS011;62246;50.938;4.058;2022-09-12T12:57:51;4.15;;;2.20;;
53873;SDS011;62246;50.938;4.058;2022-09-12T13:03:00;3.40;;;2.27;;
53873;SDS011;62246;50.938;4.058;2022-09-12T13:05:44;3.22;;;2.22;;
53873;SDS011;62246;50.938;4.058;2022-09-12T13:10:49;3.90;;;2.20;;
53873;SDS011;62246;50.938;4.058;2022-09-12T13:13:22;2.70;;;2.05;;
53873;SDS011;62246;50.938;4.058;2022-09-12T13:15:52;3.53;;;1.85;;
53873;SDS011;62246;50.938;4.058;2022-09-12T13:21:17;6.03;;;1.80;;
53873;SDS011;62246;50.938;4.058;2022-09-12T13:23:58;3.83;;;1.88;;
53873;SDS011;62246;50.938;4.058;2022-09-12T13:26:31;9.10;;;2.20;;
53873;SDS011;62246;50.938;4.058;2022-09-12T13:29:13;3.05;;;2.00;;
53873;SDS011;62246;50.938;4.058;2022-09-12T13:31:41;4.50;;;1.80;;
53873;SDS011;62246;50.938;4.058;2022-09-12T13:34:09;5.28;;;1.90;;
53873;SDS011;62246;50.938;4.058;2022-09-12T13:45:01;4.22;;;1.88;;
53873;SDS011;62246;50.938;4.058;2022-09-12T13:47:31;4.80;;;1.88;;
53873;SDS011;62246;50.938;4.058;2022-09-12T13:50:05;4.45;;;1.80;;
53873;SDS011;62246;50.938;4.058;2022-09-12T13:52:36;3.30;;;1.63;;
53873;SDS011;62246;50.938;4.058;2022-09-12T13:55:13;4.03;;;1.80;;
53873;SDS011;62246;50.938;4.058;2022-09-12T13:57:55;2.67;;;1.90;;
53873;SDS011;62246;50.938;4.058;2022-09-12T14:00:58;2.97;;;1.50;;
53873;SDS011;62246;50.938;4.058;2022-09-12T14:03:37;4.57;;;1.70;;
53873;SDS011;62246;50.938;4.058;2022-09-12T14:06:26;4.28;;;1.80;;
53873;SDS011;62246;50.938;4.058;2022-09-12T14:08:52;3.05;;;1.70;;
53873;SDS011;62246;50.938;4.058;2022-09-12T14:11:24;5.23;;;1.87;;
53873;SDS011;62246;50.938;4.058;2022-09-12T14:13:52;2.42;;;1.80;;
53873;SDS011;62246;50.938;4.058;2022-09-12T14:16:20;5.72;;;1.92;;
53873;SDS011;62246;50.938;4.058;2022-09-12T14:18:47;3.45;;;1.67;;
53873;SDS011;62246;50.938;4.058;2022-09-12T14:21:25;2.97;;;1.70;;
53873;SDS011;62246;50.938;4.058;2022-09-12T14:23:58;2.33;;;1.75;;
53873;SDS011;62246;50.938;4.058;2022-09-12T14:26:25;2.95;;;1.80;;
53873;SDS011;62246;50.938;4.058;2022-09-12T14:28:58;3.75;;;1.70;;
53873;SDS011;62246;50.938;4.058;2022-09-12T14:31:42;1.77;;;1.60;;
53873;SDS011;62246;50.938;4.058;2022-09-12T14:34:15;3.90;;;1.75;;
53873;SDS011;62246;50.938;4.058;2022-09-12T14:36:46;2.03;;;1.70;;
53873;SDS011;62246;50.938;4.058;2022-09-12T14:39:15;2.70;;;1.50;;
53873;SDS011;62246;50.938;4.058;2022-09-12T14:41:48;2.53;;;1.67;;
53873;SDS011;62246;50.938;4.058;2022-09-12T14:44:19;1.98;;;1.60;;
53873;SDS011;62246;50.938;4.058;2022-09-12T14:46:49;3.47;;;1.80;;
53873;SDS011;62246;50.938;4.058;2022-09-12T14:49:26;2.58;;;1.80;;
53873;SDS011;62246;50.938;4.058;2022-09-12T14:52:00;2.38;;;1.80;;
53873;SDS011;62246;50.938;4.058;2022-09-12T14:56:57;2.40;;;1.70;;
53873;SDS011;62246;50.938;4.058;2022-09-12T15:04:44;2.40;;;1.90;;
53873;SDS011;62246;50.938;4.058;2022-09-12T15:07:23;2.30;;;1.58;;
53873;SDS011;62246;50.938;4.058;2022-09-12T15:09:58;1.90;;;1.70;;
53873;SDS011;62246;50.938;4.058;2022-09-12T15:12:25;2.95;;;1.80;;
53873;SDS011;62246;50.938;4.058;2022-09-12T15:14:50;2.40;;;1.73;;
53873;SDS011;62246;50.938;4.058;2022-09-12T15:17:16;3.38;;;1.90;;
53873;SDS011;62246;50.938;4.058;2022-09-12T15:19:41;2.95;;;1.70;;
53873;SDS011;62246;50.938;4.058;2022-09-12T15:22:09;1.97;;;1.57;;
53873;SDS011;62246;50.938;4.058;2022-09-12T15:24:36;2.22;;;1.63;;
53873;SDS011;62246;50.938;4.058;2022-09-12T15:27:10;2.55;;;1.40;;
53873;SDS011;62246;50.938;4.058;2022-09-12T15:29:36;2.28;;;1.40;;
53873;SDS011;62246;50.938;4.058;2022-09-12T15:32:02;2.17;;;1.40;;
53873;SDS011;62246;50.938;4.058;2022-09-12T15:34:28;3.00;;;1.48;;
53873;SDS011;62246;50.938;4.058;2022-09-12T15:36:54;1.65;;;1.33;;
53873;SDS011;62246;50.938;4.058;2022-09-12T15:39:19;4.10;;;1.52;;
53873;SDS011;62246;50.938;4.058;2022-09-12T15:41:44;1.88;;;1.45;;
53873;SDS011;62246;50.938;4.058;2022-09-12T15:44:11;3.90;;;1.33;;
53873;SDS011;62246;50.938;4.058;2022-09-12T15:46:38;4.35;;;1.50;;
53873;SDS011;62246;50.938;4.058;2022-09-12T15:49:04;1.90;;;1.40;;
53873;SDS011;62246;50.938;4.058;2022-09-12T15:51:31;3.35;;;1.40;;
53873;SDS011;62246;50.938;4.058;2022-09-12T15:53:57;2.15;;;1.40;;
53873;SDS011;62246;50.938;4.058;2022-09-12T15:56:24;2.75;;;1.30;;
53873;SDS011;62246;50.938;4.058;2022-09-12T15:58:49;2.50;;;1.23;;
53873;SDS011;62246;50.938;4.058;2022-09-12T16:01:15;2.25;;;1.60;;
53873;SDS011;62246;50.938;4.058;2022-09-12T16:03:42;3.10;;;1.48;;
53873;SDS011;62246;50.938;4.058;2022-09-12T16:06:10;3.95;;;1.30;;
53873;SDS011;62246;50.938;4.058;2022-09-12T16:08:36;5.57;;;1.42;;
53873;SDS011;62246;50.938;4.058;2022-09-12T16:11:02;3.10;;;1.33;;
53873;SDS011;62246;50.938;4.058;2022-09-12T16:13:31;2.17;;;1.23;;
53873;SDS011;62246;50.938;4.058;2022-09-12T16:15:57;4.80;;;1.48;;
53873;SDS011;62246;50.938;4.058;2022-09-12T16:18:23;5.95;;;1.63;;
53873;SDS011;62246;50.938;4.058;2022-09-12T16:20:53;2.33;;;1.17;;
53873;SDS011;62246;50.938;4.058;2022-09-12T16:23:19;1.70;;;1.40;;
53873;SDS011;62246;50.938;4.058;2022-09-12T16:25:54;1.42;;;1.20;;
53873;SDS011;62246;50.938;4.058;2022-09-12T16:28:21;4.63;;;1.50;;
53873;SDS011;62246;50.938;4.058;2022-09-12T16:30:56;2.42;;;1.20;;
53873;SDS011;62246;50.938;4.058;2022-09-12T16:33:23;3.08;;;1.63;;
53873;SDS011;62246;50.938;4.058;2022-09-12T16:35:50;3.20;;;1.20;;
53873;SDS011;62246;50.938;4.058;2022-09-12T16:38:19;1.77;;;1.30;;
53873;SDS011;62246;50.938;4.058;2022-09-12T16:40:45;2.92;;;1.33;;
53873;SDS011;62246;50.938;4.058;2022-09-12T16:43:10;4.60;;;1.60;;
53873;SDS011;62246;50.938;4.058;2022-09-12T16:45:36;4.80;;;1.40;;
53873;SDS011;62246;50.938;4.058;2022-09-12T16:48:01;2.63;;;1.17;;
53873;SDS011;62246;50.938;4.058;2022-09-12T16:50:27;2.75;;;1.10;;
53873;SDS011;62246;50.938;4.058;2022-09-12T16:52:53;2.40;;;1.20;;
53873;SDS011;62246;50.938;4.058;2022-09-12T16:55:18;2.45;;;1.20;;
53873;SDS011;62246;50.938;4.058;2022-09-12T16:57:44;2.42;;;1.13;;
53873;SDS011;62246;50.938;4.058;2022-09-12T17:00:11;1.40;;;1.10;;
53873;SDS011;62246;50.938;4.058;2022-09-12T17:02:38;3.05;;;1.40;;
53873;SDS011;62246;50.938;4.058;2022-09-12T17:05:03;3.13;;;1.40;;
53873;SDS011;62246;50.938;4.058;2022-09-12T17:07:29;3.55;;;1.20;;
53873;SDS011;62246;50.938;4.058;2022-09-12T17:09:54;2.33;;;1.30;;
53873;SDS011;62246;50.938;4.058;2022-09-12T17:12:20;2.20;;;1.30;;
53873;SDS011;62246;50.938;4.058;2022-09-12T17:14:45;2.83;;;1.38;;
53873;SDS011;62246;50.938;4.058;2022-09-12T17:17:10;1.38;;;1.25;;
53873;SDS011;62246;50.938;4.058;2022-09-12T17:19:36;1.95;;;1.05;;
53873;SDS011;62246;50.938;4.058;2022-09-12T17:22:01;3.22;;;1.60;;
53873;SDS011;62246;50.938;4.058;2022-09-12T17:24:27;3.95;;;1.40;;
53873;SDS011;62246;50.938;4.058;2022-09-12T17:26:52;3.30;;;1.40;;
53873;SDS011;62246;50.938;4.058;2022-09-12T17:29:18;3.67;;;1.30;;
53873;SDS011;62246;50.938;4.058;2022-09-12T17:31:44;5.45;;;1.10;;
53873;SDS011;62246;50.938;4.058;2022-09-12T17:34:09;4.30;;;1.73;;
53873;SDS011;62246;50.938;4.058;2022-09-12T17:36:38;2.22;;;1.20;;
53873;SDS011;62246;50.938;4.058;2022-09-12T17:39:04;2.80;;;1.30;;
53873;SDS011;62246;50.938;4.058;2022-09-12T17:41:29;1.95;;;1.27;;
53873;SDS011;62246;50.938;4.058;2022-09-12T17:43:56;5.15;;;1.67;;
53873;SDS011;62246;50.938;4.058;2022-09-12T17:46:24;2.90;;;1.40;;
53873;SDS011;62246;50.938;4.058;2022-09-12T17:48:54;3.20;;;1.33;;